Accueil
METAR-TAF:

METAR-TAF

Aéroports :

Turin, Italie

Aéroport Sandro-Pertini de Turin Caselle

latitude: 45-13N, longitude: 007-39E, altitude: 301 m

Observation

Le bulletin a été fait il y a 17 minutes, à 00:20 UTC
Vent 4 kt de ouest/sud-ouest, variant entre sud-ouest et ouest/nord-ouest
Température 16°C
Humidité 59%
Pression 1015 hPa
Visibilité 10 km ou plus
pas de nuages en-dessous de 1500 mètres et pas de cumulonimbus.

METAR: LIMF 240020Z 25004KT 230V290 CAVOK 16/08 Q1015

Heure: 02:37 (00:37 UTC)

Prévision

Le bulletin a été fait il y a 1 heure et 37 minutes, à 23:00 UTC
Prévision valable du 24 à 00 UTC au 24 à 24 UTC
Vent 5 kt de direction variable
Visibilité 10 km ou plus
Nuages épars à une hauteur de 7000 ft
Probabilité 40% :
Temporairement
du 24 à 06 UTC au 24 à 12 UTC
orage, pluie

TAF: LIMF 232300Z 2400/2424 VRB05KT 9999 SCT070 PROB40 TEMPO 2406/2412 TSRA

Observations et prévisions météorologiques de plus de 4000 aéroports (messages METAR et TAF).

Les stations disponibles sont représentées par des disques jaunes et rouges sur la carte.

Passer la souris dessus pour voir le nom de la station.

Cliquer dessus pour voir les observations et prévisions météorologiques.

Pour changer de carte: cliquez sur les boutons verts avec une croix noire pour zoomer, sur le bouton vert avec un tiret pour effectuer un zoom arrière, ou sur les flèches vertes pour les cartes adjacentes.


METAR-TAF: